createdAt,value
2023-01-13T00:02:14.486Z,99506.31
2023-01-13T00:07:16.082Z,99504.97
2023-01-13T00:12:17.654Z,99496.69
2023-01-13T00:17:19.253Z,99507.84
2023-01-13T00:22:20.842Z,99509.22
2023-01-13T00:27:24.931Z,99504.50
2023-01-13T00:32:26.813Z,99503.16
2023-01-13T00:37:28.584Z,99508.72
2023-01-13T00:42:48.385Z,99492.22
2023-01-13T00:47:49.982Z,99493.91
2023-01-13T00:52:51.593Z,99495.09
2023-01-13T00:57:53.176Z,99492.56
2023-01-13T01:02:54.795Z,99494.06
2023-01-13T01:07:56.372Z,99501.16
2023-01-13T01:12:57.964Z,99492.41
2023-01-13T01:17:59.574Z,99493.56
2023-01-13T01:23:01.186Z,99495.94
2023-01-13T01:28:02.777Z,99494.75
2023-01-13T01:33:05.300Z,99483.31
2023-01-13T01:38:06.946Z,99482.63
2023-01-13T01:43:34.681Z,99478.75
2023-01-13T01:48:39.276Z,99475.72
2023-01-13T01:53:41.805Z,99482.47
2023-01-13T01:58:49.853Z,99480.09
2023-01-13T02:03:59.669Z,99468.81
2023-01-13T02:09:01.393Z,99457.69
2023-01-13T02:14:02.992Z,99462.06
2023-01-13T02:19:38.886Z,99455.63
2023-01-13T02:24:59.262Z,99447.38
2023-01-13T02:30:41.839Z,99449.88
2023-01-13T02:35:51.809Z,99422.41
2023-01-13T02:41:20.246Z,99427.09
2023-01-13T02:46:28.774Z,99416.13
2023-01-13T02:51:31.195Z,99415.47
2023-01-13T02:56:37.412Z,99412.78
2023-01-13T03:01:39.476Z,99412.06
2023-01-13T03:07:00.699Z,99411.22
2023-01-13T03:12:08.238Z,99415.78
2023-01-13T03:17:42.398Z,99428.56
2023-01-13T03:23:15.357Z,99426.72
2023-01-13T03:28:25.597Z,99418.22
2023-01-13T03:33:50.445Z,99412.00
2023-01-13T03:38:54.647Z,99411.63
2023-01-13T03:44:21.447Z,99409.13
2023-01-13T03:49:27.280Z,99408.81
2023-01-13T03:54:30.852Z,99416.00
2023-01-13T03:59:36.384Z,99419.56
2023-01-13T04:04:45.159Z,99413.00
2023-01-13T04:09:51.714Z,99414.34
2023-01-13T04:14:54.230Z,99405.88
2023-01-13T04:19:55.817Z,99410.97
2023-01-13T04:24:57.427Z,99414.38
2023-01-13T04:29:59.071Z,99404.56
2023-01-13T04:35:01.022Z,99405.56
2023-01-13T04:40:02.679Z,99406.94
2023-01-13T04:45:04.702Z,99405.97
2023-01-13T04:50:06.593Z,99409.81
2023-01-13T04:55:09.012Z,99403.28
2023-01-13T05:00:12.940Z,99398.00
2023-01-13T05:05:14.542Z,99397.47
2023-01-13T05:10:16.538Z,99395.44
2023-01-13T05:15:36.851Z,99398.81
2023-01-13T05:20:38.551Z,99404.91
2023-01-13T05:25:44.120Z,99397.66
2023-01-13T05:30:49.838Z,99406.91
2023-01-13T05:35:51.734Z,99404.06
2023-01-13T05:41:12.112Z,99405.88
2023-01-13T05:46:14.841Z,99413.81
2023-01-13T05:51:16.580Z,99398.13
2023-01-13T05:56:18.259Z,99405.56
2023-01-13T06:01:20.000Z,99398.97
2023-01-13T06:06:21.824Z,99405.03
2023-01-13T06:11:23.457Z,99400.53
2023-01-13T06:16:25.193Z,99401.22
2023-01-13T06:21:26.817Z,99399.38
2023-01-13T06:26:30.698Z,99402.28
2023-01-13T06:31:36.565Z,99402.31
2023-01-13T06:36:40.909Z,99402.13
2023-01-13T06:42:01.072Z,99393.09
2023-01-13T06:47:02.738Z,99407.22
2023-01-13T06:52:05.218Z,99395.56
2023-01-13T06:57:06.815Z,99399.25
2023-01-13T07:02:08.585Z,99405.47
2023-01-13T07:07:10.261Z,99425.56
2023-01-13T07:12:12.271Z,99410.88
2023-01-13T07:17:13.925Z,99425.22
2023-01-13T07:22:15.550Z,99430.44
2023-01-13T07:27:17.196Z,99428.97
2023-01-13T07:32:19.167Z,99424.97
2023-01-13T07:37:20.775Z,99411.16
2023-01-13T07:42:40.793Z,99411.84
2023-01-13T07:47:42.589Z,99414.38
2023-01-13T07:52:44.230Z,99416.38
2023-01-13T07:57:45.942Z,99419.91
2023-01-13T08:02:47.629Z,99434.59
2023-01-13T08:07:49.280Z,99422.78
2023-01-13T08:13:09.251Z,99419.94
2023-01-13T08:18:11.452Z,99419.91
2023-01-13T08:23:13.159Z,99420.22
2023-01-13T08:28:15.916Z,99415.66
2023-01-13T08:33:17.674Z,99414.16
2023-01-13T08:38:20.095Z,99413.13
2023-01-13T08:43:21.813Z,99413.59
2023-01-13T08:48:23.419Z,99412.22
2023-01-13T08:53:25.016Z,99408.28
2023-01-13T08:58:26.852Z,99406.78
2023-01-13T09:03:28.517Z,99419.09
2023-01-13T09:08:30.119Z,99429.13
2023-01-13T09:13:31.821Z,99452.19
2023-01-13T09:18:33.463Z,99453.50
2023-01-13T09:23:35.116Z,99565.59
2023-01-13T09:28:36.753Z,99572.91
2023-01-13T09:33:57.147Z,99576.59
2023-01-13T09:38:59.205Z,99581.00
2023-01-13T09:44:01.874Z,99579.13
2023-01-13T09:49:04.412Z,99569.56
2023-01-13T09:54:16.524Z,99591.22
2023-01-13T09:59:18.313Z,99588.13
2023-01-13T10:04:20.129Z,99595.72
2023-01-13T10:09:49.918Z,99583.88
2023-01-13T10:14:55.833Z,99583.94
2023-01-13T10:20:41.049Z,99593.38
2023-01-13T10:25:58.093Z,99577.94
2023-01-13T10:30:59.937Z,99570.88
2023-01-13T10:36:15.276Z,99546.34
2023-01-13T10:41:20.118Z,99533.59
2023-01-13T10:46:21.810Z,99522.47
2023-01-13T10:51:38.798Z,99524.34
2023-01-13T10:56:42.365Z,99515.13
2023-01-13T11:01:54.736Z,99512.16
2023-01-13T11:06:56.983Z,99508.50
2023-01-13T11:11:59.520Z,99526.16
2023-01-13T11:17:24.897Z,99541.75
2023-01-13T11:22:34.291Z,99533.16
2023-01-13T11:27:41.751Z,99538.84
2023-01-13T11:33:12.333Z,99540.16
2023-01-13T11:38:52.338Z,99552.91
2023-01-13T11:44:05.142Z,99548.78
2023-01-13T11:49:07.017Z,99554.44
2023-01-13T11:54:24.355Z,99558.44
2023-01-13T11:59:38.101Z,99560.13
2023-01-13T12:04:57.819Z,99532.91
2023-01-13T12:10:13.204Z,99517.75
2023-01-13T12:15:21.493Z,99535.00
2023-01-13T12:20:38.196Z,99539.41
2023-01-13T12:25:45.751Z,99545.88
2023-01-13T12:30:54.551Z,99536.13
2023-01-13T12:36:05.122Z,99528.19
2023-01-13T12:41:10.386Z,99524.81
2023-01-13T12:46:24.561Z,99532.72
2023-01-13T12:51:34.216Z,99537.56
2023-01-13T12:56:42.040Z,99522.75
2023-01-13T13:01:45.310Z,99546.03
2023-01-13T13:07:07.204Z,99556.97
2023-01-13T13:12:59.918Z,99551.91
2023-01-13T13:18:16.758Z,99545.84
2023-01-13T13:23:33.470Z,99550.03
2023-01-13T13:28:38.471Z,99558.28
2023-01-13T13:33:52.885Z,99562.50
2023-01-13T13:39:22.439Z,99549.53
2023-01-13T13:44:49.655Z,99561.66
2023-01-13T13:49:54.368Z,99563.16
2023-01-13T13:54:59.695Z,99567.56
2023-01-13T14:00:01.809Z,99562.31
2023-01-13T14:05:18.152Z,99553.25
2023-01-13T14:10:25.058Z,99543.13
2023-01-13T14:15:35.132Z,99548.50
2023-01-13T14:20:37.067Z,99561.63
2023-01-13T14:25:47.390Z,99565.84
2023-01-13T14:30:50.760Z,99582.69
2023-01-13T14:36:04.717Z,99591.25
2023-01-13T14:41:20.873Z,99599.00
2023-01-13T14:46:25.143Z,99612.41
2023-01-13T14:51:28.452Z,99618.44
2023-01-13T14:56:53.831Z,99626.53
2023-01-13T15:01:55.792Z,99635.25
2023-01-13T15:06:58.135Z,99629.19
2023-01-13T15:11:59.964Z,99653.53
2023-01-13T15:17:01.612Z,99709.44
2023-01-13T15:22:03.365Z,99702.91
2023-01-13T15:27:18.905Z,99686.06
2023-01-13T15:32:21.696Z,99714.09
2023-01-13T15:37:25.545Z,99692.41
2023-01-13T15:42:45.831Z,99693.66
2023-01-13T15:47:48.286Z,99692.34
2023-01-13T15:52:49.935Z,99692.84
2023-01-13T15:57:51.618Z,99694.13
2023-01-13T16:02:53.356Z,99700.19
2023-01-13T16:07:55.034Z,99707.06
2023-01-13T16:12:56.716Z,99701.25
2023-01-13T16:18:01.015Z,99691.69
2023-01-13T16:23:02.674Z,99693.38
2023-01-13T16:28:04.322Z,99702.13
2023-01-13T16:33:05.991Z,99712.53
2023-01-13T16:38:14.044Z,99704.47
2023-01-13T16:43:15.724Z,99698.56
2023-01-13T16:48:20.106Z,99712.25
2023-01-13T16:53:21.757Z,99721.03
2023-01-13T16:58:23.429Z,99720.16
2023-01-13T17:03:25.094Z,99741.31
2023-01-13T17:08:26.903Z,99752.34
2023-01-13T17:13:28.499Z,99760.53
2023-01-13T17:18:30.215Z,99780.44
2023-01-13T17:23:33.398Z,99779.28
2023-01-13T17:28:35.094Z,99766.09
2023-01-13T17:33:37.218Z,99772.72
2023-01-13T17:38:38.835Z,99781.94
2023-01-13T17:43:40.453Z,99775.28
2023-01-13T17:48:42.043Z,99788.84
2023-01-13T17:53:44.218Z,99796.91
2023-01-13T17:58:46.772Z,99802.94
2023-01-13T18:03:48.895Z,99808.13
2023-01-13T18:08:50.875Z,99820.56
2023-01-13T18:13:57.305Z,99850.81
2023-01-13T18:19:19.845Z,99854.25
2023-01-13T18:24:40.165Z,99857.66
2023-01-13T18:29:41.785Z,99859.22
2023-01-13T18:34:43.633Z,99854.97
2023-01-13T18:39:45.311Z,99866.69
2023-01-13T18:44:46.938Z,99857.34
2023-01-13T18:49:48.915Z,99847.13
2023-01-13T18:54:50.648Z,99851.06
2023-01-13T18:59:52.524Z,99853.47
2023-01-13T19:04:54.449Z,99854.75
2023-01-13T19:09:56.180Z,99856.66
2023-01-13T19:14:58.472Z,99856.81
2023-01-13T19:20:00.117Z,99872.22
2023-01-13T19:25:03.158Z,99865.84
2023-01-13T19:30:06.014Z,99882.69
2023-01-13T19:35:08.693Z,99880.28
2023-01-13T19:40:10.920Z,99895.28
2023-01-13T19:45:30.557Z,99910.00
2023-01-13T19:50:36.278Z,99906.59
2023-01-13T19:55:37.931Z,99911.56
2023-01-13T20:00:46.996Z,99915.53
2023-01-13T20:05:48.641Z,99909.88
2023-01-13T20:10:50.271Z,99943.53
2023-01-13T20:15:52.035Z,99945.81
2023-01-13T20:20:53.774Z,99947.81
2023-01-13T20:25:55.607Z,99955.28
2023-01-13T20:30:57.216Z,99975.50
2023-01-13T20:35:59.238Z,99979.88
2023-01-13T20:41:21.849Z,99989.63
2023-01-13T20:46:24.549Z,99981.28
2023-01-13T20:51:26.253Z,99983.16
2023-01-13T20:56:27.948Z,99989.78
2023-01-13T21:01:30.198Z,99987.97
2023-01-13T21:06:32.981Z,99979.47
2023-01-13T21:11:53.777Z,100001.34
2023-01-13T21:16:55.373Z,99995.72
2023-01-13T21:21:57.309Z,99998.81
2023-01-13T21:26:59.146Z,100013.53
2023-01-13T21:32:00.852Z,100017.06
2023-01-13T21:37:02.482Z,100022.59
2023-01-13T21:42:23.057Z,100029.78
2023-01-13T21:47:43.302Z,100046.47
2023-01-13T21:52:45.750Z,100048.31
2023-01-13T21:57:48.081Z,100057.38
2023-01-13T22:02:50.445Z,100056.38
2023-01-13T22:07:52.437Z,100061.44
2023-01-13T22:12:55.655Z,100062.69
2023-01-13T22:17:57.364Z,100074.66
2023-01-13T22:22:59.337Z,100078.19
2023-01-13T22:28:05.969Z,100076.34
2023-01-13T22:33:07.542Z,100085.09
2023-01-13T22:38:12.118Z,100089.63
2023-01-13T22:43:14.229Z,100087.63
2023-01-13T22:48:15.989Z,100087.63
2023-01-13T22:53:18.083Z,100093.72
2023-01-13T22:58:19.705Z,100090.91
2023-01-13T23:03:22.129Z,100101.09
2023-01-13T23:08:23.883Z,100114.44
2023-01-13T23:13:25.508Z,100106.13
2023-01-13T23:18:27.170Z,100120.25
2023-01-13T23:23:28.792Z,100118.56
2023-01-13T23:28:30.561Z,100112.56
2023-01-13T23:33:32.334Z,100110.97
2023-01-13T23:38:34.025Z,100127.22
2023-01-13T23:43:35.910Z,100129.59
2023-01-13T23:48:37.744Z,100141.59
2023-01-13T23:53:44.925Z,100142.28
2023-01-13T23:58:47.076Z,100142.28
